Andal Kazi Nazrul Islam Airport

Current Flights

Departures
Number Departure To Airline
 AI518 02:10  Hyderabad  Air India
 SG6355 10:45  Mumbai  SpiceJet
 AI756 08:25  Delhi  Air India
 SG6355 10:45  Mumbai  SpiceJet
Arrivals
Number Arrival From Airline
 SG6354 10:05 +21  Mumbai  SpiceJet
 AI517 01:15  Hyderabad  Air India
 SG6354 10:05  Mumbai  SpiceJet
Info
Name: Andal Kazi Nazrul Islam Airport
Identifier:  RDP/VEDG
Local Time:  25. Jun 21:36
City
Flights per Day
1 flights
Distance: 1,155km (717mi)
Punctuality
91% (0 flights per day delayed)
Delay Average: 39 minutes
Current Weather
 37 C (Humidity: 50%)
  8kt (14km/h / 9mph) from 270°
  Few clouds at 2,000 feet (609 meter)
  4km (2 mi.)
No significant changes expected

 Haze
 METAR VEDG 250600Z 27008KT 4500 HZ FEW020 37/25 Q1004 NOSIG

Current Delays

Departures
N/A
Arrivals
N/A

Destinations

Top Destinations
Airport Flights
per week
Seats
per week
  Delhi (DEL) 7 1,097 1 156
  Hyderabad (HYD) 6 873 0 124

Airlines & Planes

Top Airlines
Airline Flights
per Day
Seats
per Day
  Air India 2 281
Top Plane Types
Model Flights Seats
Airbus A319 1.8/day 250/day 250.4
Airbus A320 0.2/day 31/day 31.2